createdAt,value
2022-08-07T00:00:30.869Z,13.47
2022-08-07T00:01:44.540Z,13.47
2022-08-07T00:02:44.361Z,13.44
2022-08-07T00:03:36.640Z,13.44
2022-08-07T00:04:30.856Z,13.44
2022-08-07T00:05:30.810Z,13.44
2022-08-07T00:06:33.161Z,13.44
2022-08-07T00:07:40.124Z,13.43
2022-08-07T00:08:30.846Z,13.43
2022-08-07T00:09:35.664Z,13.43
2022-08-07T00:10:31.485Z,13.41
2022-08-07T00:11:33.276Z,13.41
2022-08-07T00:12:30.753Z,13.43
2022-08-07T00:13:30.720Z,13.41
2022-08-07T00:14:31.652Z,13.40
2022-08-07T00:15:38.455Z,13.36
2022-08-07T00:16:30.691Z,13.32
2022-08-07T00:17:30.673Z,13.27
2022-08-07T00:18:30.681Z,13.24
2022-08-07T00:20:00.514Z,13.22
2022-08-07T00:20:34.305Z,13.18
2022-08-07T00:21:55.946Z,13.15
2022-08-07T00:22:35.096Z,13.14
2022-08-07T00:23:30.611Z,13.14
2022-08-07T00:24:31.763Z,13.11
2022-08-07T00:25:37.246Z,13.09
2022-08-07T00:26:49.444Z,13.09
2022-08-07T00:27:51.885Z,13.09
2022-08-07T00:28:33.471Z,13.07
2022-08-07T00:29:31.317Z,13.07
2022-08-07T00:30:30.547Z,13.03
2022-08-07T00:31:37.965Z,13.02
2022-08-07T00:32:30.556Z,12.99
2022-08-07T00:33:32.760Z,12.99
2022-08-07T00:34:30.838Z,12.96
2022-08-07T00:35:30.637Z,12.95
2022-08-07T00:36:30.478Z,12.95
2022-08-07T00:37:30.550Z,12.93
2022-08-07T00:38:31.309Z,12.88
2022-08-07T00:39:30.470Z,12.88
2022-08-07T00:40:39.982Z,12.85
2022-08-07T00:41:30.420Z,12.85
2022-08-07T00:42:30.416Z,12.82
2022-08-07T00:44:00.822Z,12.82
2022-08-07T00:44:30.435Z,12.82
2022-08-07T00:45:30.379Z,12.81
2022-08-07T00:46:30.878Z,12.79
2022-08-07T00:48:09.492Z,12.77
2022-08-07T00:48:32.226Z,12.79
2022-08-07T00:50:19.950Z,12.79
2022-08-07T00:50:46.511Z,12.78
2022-08-07T00:51:58.732Z,12.78
2022-08-07T00:52:33.321Z,12.78
2022-08-07T00:53:38.629Z,12.78
2022-08-07T00:54:30.279Z,12.77
2022-08-07T00:56:00.807Z,12.78
2022-08-07T00:56:33.996Z,12.78
2022-08-07T00:57:30.461Z,12.75
2022-08-07T00:58:30.237Z,12.71
2022-08-07T00:59:35.192Z,12.71
2022-08-07T01:00:30.218Z,12.71
2022-08-07T01:01:41.495Z,12.67
2022-08-07T01:02:30.222Z,12.67
2022-08-07T01:03:57.312Z,12.66
2022-08-07T01:04:30.280Z,12.66
2022-08-07T01:05:30.159Z,12.67
2022-08-07T01:06:30.155Z,12.66
2022-08-07T01:07:31.189Z,12.64
2022-08-07T01:08:30.149Z,12.69
2022-08-07T01:10:03.852Z,12.67
2022-08-07T01:10:30.123Z,12.69
2022-08-07T01:12:23.670Z,12.70
2022-08-07T01:12:35.091Z,12.71
2022-08-07T01:13:30.069Z,12.75
2022-08-07T01:14:30.129Z,12.75
2022-08-07T01:16:00.531Z,12.75
2022-08-07T01:16:30.817Z,12.74
2022-08-07T01:17:30.335Z,12.70
2022-08-07T01:18:30.018Z,12.69
2022-08-07T01:19:32.622Z,12.67
2022-08-07T01:20:30.798Z,12.64
2022-08-07T01:21:29.984Z,12.63
2022-08-07T01:22:29.975Z,12.62
2022-08-07T01:23:36.739Z,12.60
2022-08-07T01:24:30.684Z,12.56
2022-08-07T01:25:40.515Z,12.56
2022-08-07T01:26:30.016Z,12.52
2022-08-07T01:27:32.252Z,12.51
2022-08-07T01:28:29.917Z,12.48
2022-08-07T01:29:33.662Z,12.46
2022-08-07T01:30:29.897Z,12.46
2022-08-07T01:31:41.801Z,12.45
2022-08-07T01:32:29.912Z,12.42
2022-08-07T01:33:53.706Z,12.41
2022-08-07T01:34:31.117Z,12.39
2022-08-07T01:35:53.613Z,12.37
2022-08-07T01:36:33.221Z,12.37
2022-08-07T01:37:30.050Z,12.33
2022-08-07T01:38:30.318Z,12.30
2022-08-07T01:39:40.320Z,12.27
2022-08-07T01:40:29.806Z,12.26
2022-08-07T01:41:29.781Z,12.24
2022-08-07T01:42:38.167Z,12.21
2022-08-07T01:43:38.025Z,12.21
2022-08-07T01:44:29.777Z,12.19
2022-08-07T01:45:37.260Z,12.15
2022-08-07T01:46:31.241Z,12.16
2022-08-07T01:48:18.555Z,12.13
2022-08-07T01:48:30.744Z,12.13
2022-08-07T01:49:31.875Z,12.13
2022-08-07T01:50:30.164Z,12.12
2022-08-07T01:52:03.795Z,12.12
2022-08-07T01:52:29.693Z,12.09
2022-08-07T01:54:09.103Z,12.09
2022-08-07T01:54:33.052Z,12.08
2022-08-07T01:55:29.652Z,12.05
2022-08-07T01:56:29.645Z,12.05
2022-08-07T01:57:30.010Z,12.04
2022-08-07T01:58:33.163Z,12.02
2022-08-07T01:59:31.164Z,12.02
2022-08-07T02:00:29.576Z,12.01
2022-08-07T02:01:59.698Z,11.99
2022-08-07T02:02:32.473Z,11.99
2022-08-07T02:03:42.891Z,11.97
2022-08-07T02:04:30.323Z,11.94
2022-08-07T02:05:47.645Z,11.93
2022-08-07T02:06:31.666Z,11.90
2022-08-07T02:07:35.960Z,11.89
2022-08-07T02:08:29.530Z,11.87
2022-08-07T02:09:43.579Z,11.86
2022-08-07T02:10:29.477Z,11.85
2022-08-07T02:11:31.027Z,11.82
2022-08-07T02:12:30.994Z,11.80
2022-08-07T02:13:59.800Z,11.80
2022-08-07T02:14:35.685Z,11.77
2022-08-07T02:15:29.408Z,11.74
2022-08-07T02:16:33.730Z,11.72
2022-08-07T02:17:31.588Z,11.72
2022-08-07T02:18:29.941Z,11.72
2022-08-07T02:20:04.322Z,11.72
2022-08-07T02:20:29.402Z,11.71
2022-08-07T02:21:56.070Z,11.68
2022-08-07T02:22:30.301Z,11.68
2022-08-07T02:23:29.719Z,11.68
2022-08-07T02:24:29.917Z,11.68
2022-08-07T02:26:10.822Z,11.68
2022-08-07T02:26:37.891Z,11.64
2022-08-07T02:27:34.557Z,11.65
2022-08-07T02:28:29.281Z,11.64
2022-08-07T02:29:29.261Z,11.64
2022-08-07T02:30:29.568Z,11.61
2022-08-07T02:31:29.576Z,11.61
2022-08-07T02:32:29.914Z,11.59
2022-08-07T02:33:41.934Z,11.57
2022-08-07T02:34:29.816Z,11.57
2022-08-07T02:36:29.322Z,11.54
2022-08-07T02:36:37.376Z,11.54
2022-08-07T02:37:34.131Z,11.52
2022-08-07T02:38:31.857Z,11.50
2022-08-07T02:39:42.856Z,11.54
2022-08-07T02:40:30.823Z,11.54
2022-08-07T02:41:33.511Z,11.57
2022-08-07T02:42:29.137Z,11.56
2022-08-07T02:43:29.501Z,11.57
2022-08-07T02:44:34.786Z,11.56
2022-08-07T02:45:58.876Z,11.56
2022-08-07T02:46:29.080Z,11.56
2022-08-07T02:47:35.049Z,11.56
2022-08-07T02:48:29.067Z,11.54
2022-08-07T02:49:57.795Z,11.56
2022-08-07T02:50:30.830Z,11.54
2022-08-07T02:51:49.806Z,11.53
2022-08-07T02:52:31.207Z,11.52
2022-08-07T02:53:29.005Z,11.53
2022-08-07T02:54:29.004Z,11.54
2022-08-07T02:56:02.662Z,11.53
2022-08-07T02:56:29.015Z,11.53
2022-08-07T02:57:34.108Z,11.53
2022-08-07T02:58:28.985Z,11.52
2022-08-07T02:59:28.942Z,11.50
2022-08-07T03:00:30.244Z,11.53
2022-08-07T03:01:35.481Z,11.50
2022-08-07T03:02:28.980Z,11.49
2022-08-07T03:03:29.584Z,11.44
2022-08-07T03:04:28.937Z,11.44
2022-08-07T03:05:29.221Z,11.43
2022-08-07T03:06:33.288Z,11.44
2022-08-07T03:08:05.410Z,11.43
2022-08-07T03:08:29.307Z,11.43
2022-08-07T03:09:43.569Z,11.43
2022-08-07T03:10:29.476Z,11.41
2022-08-07T03:11:28.811Z,11.38
2022-08-07T03:12:31.164Z,11.38
2022-08-07T03:13:28.783Z,11.36
2022-08-07T03:14:28.820Z,11.35
2022-08-07T03:15:47.468Z,11.34
2022-08-07T03:16:28.770Z,11.34
2022-08-07T03:17:28.948Z,11.31
2022-08-07T03:18:34.199Z,11.32
2022-08-07T03:19:36.964Z,11.32
2022-08-07T03:20:28.750Z,11.34
2022-08-07T03:21:28.713Z,11.32
2022-08-07T03:22:29.670Z,11.32
2022-08-07T03:23:33.937Z,11.29
2022-08-07T03:24:28.702Z,11.28
2022-08-07T03:25:32.472Z,11.25
2022-08-07T03:26:28.692Z,11.27
2022-08-07T03:27:30.485Z,11.25
2022-08-07T03:28:38.137Z,11.25
2022-08-07T03:29:28.633Z,11.24
2022-08-07T03:30:28.631Z,11.24
2022-08-07T03:31:42.278Z,11.20
2022-08-07T03:32:28.631Z,11.20
2022-08-07T03:33:32.304Z,11.17
2022-08-07T03:34:28.581Z,11.19
2022-08-07T03:35:43.947Z,11.16
2022-08-07T03:36:28.555Z,11.14
2022-08-07T03:37:28.779Z,11.13
2022-08-07T03:38:33.172Z,11.14
2022-08-07T03:39:56.570Z,11.14
2022-08-07T03:40:31.007Z,11.13
2022-08-07T03:41:42.231Z,11.13
2022-08-07T03:42:28.507Z,11.10
2022-08-07T03:43:32.099Z,11.10
2022-08-07T03:44:31.810Z,11.10
2022-08-07T03:45:30.779Z,11.09
2022-08-07T03:46:28.444Z,11.09
2022-08-07T03:47:29.606Z,11.09
2022-08-07T03:48:29.738Z,11.07
2022-08-07T03:49:28.430Z,11.07
2022-08-07T03:50:28.978Z,11.06
2022-08-07T03:51:30.696Z,11.03
2022-08-07T03:52:28.399Z,11.03
2022-08-07T03:53:50.104Z,11.07
2022-08-07T03:54:54.498Z,11.03
2022-08-07T03:55:52.833Z,11.03
2022-08-07T03:56:33.235Z,11.03
2022-08-07T03:58:33.260Z,11.02
2022-08-07T03:59:08.066Z,11.06
2022-08-07T03:59:28.314Z,11.03
2022-08-07T04:00:30.627Z,11.03
2022-08-07T04:01:28.302Z,11.06
2022-08-07T04:02:28.314Z,11.02
2022-08-07T04:03:28.553Z,11.01
2022-08-07T04:04:28.260Z,10.99
2022-08-07T04:05:39.599Z,10.99
2022-08-07T04:06:37.698Z,10.98
2022-08-07T04:07:36.162Z,10.99
2022-08-07T04:08:28.248Z,11.01
2022-08-07T04:09:44.644Z,10.99
2022-08-07T04:10:29.485Z,11.01
2022-08-07T04:12:21.080Z,11.02
2022-08-07T04:12:32.734Z,10.99
2022-08-07T04:13:28.147Z,11.01
2022-08-07T04:14:37.496Z,11.01
2022-08-07T04:15:28.155Z,10.99
2022-08-07T04:16:31.337Z,10.99
2022-08-07T04:18:32.000Z,10.99
2022-08-07T04:19:14.784Z,10.99
2022-08-07T04:19:51.246Z,10.99
2022-08-07T04:20:28.132Z,10.99
2022-08-07T04:21:28.061Z,10.99
2022-08-07T04:22:29.582Z,11.01
2022-08-07T04:23:43.485Z,11.02
2022-08-07T04:24:33.599Z,11.02
2022-08-07T04:25:29.118Z,11.03
2022-08-07T04:26:28.678Z,11.02
2022-08-07T04:27:28.120Z,11.03
2022-08-07T04:28:28.001Z,11.02
2022-08-07T04:29:27.977Z,11.02
2022-08-07T04:30:39.431Z,11.03
2022-08-07T04:32:02.194Z,11.06
2022-08-07T04:32:34.341Z,11.06
2022-08-07T04:33:27.937Z,11.06
2022-08-07T04:34:33.378Z,11.07
2022-08-07T04:35:28.576Z,11.06
2022-08-07T04:36:27.909Z,11.07
2022-08-07T04:37:40.499Z,11.06
2022-08-07T04:38:27.937Z,11.07
2022-08-07T04:39:27.901Z,11.09
2022-08-07T04:40:30.086Z,11.09
2022-08-07T04:41:28.219Z,11.10
2022-08-07T04:42:28.580Z,11.10
2022-08-07T04:43:53.570Z,11.11
2022-08-07T04:44:27.895Z,11.16
2022-08-07T04:45:57.216Z,11.17
2022-08-07T04:46:34.509Z,11.20
2022-08-07T04:48:02.353Z,11.21
2022-08-07T04:48:27.782Z,11.25
2022-08-07T04:49:27.768Z,11.25
2022-08-07T04:50:27.779Z,11.27
2022-08-07T04:51:27.842Z,11.29
2022-08-07T04:52:27.735Z,11.31
2022-08-07T04:54:01.006Z,11.31
2022-08-07T04:54:30.330Z,11.32
2022-08-07T04:58:15.729Z,11.34
2022-08-07T04:59:18.263Z,11.36
2022-08-07T05:00:30.595Z,11.41
2022-08-07T05:00:36.664Z,11.44
2022-08-07T05:01:30.736Z,11.47
2022-08-07T05:02:27.734Z,11.47
2022-08-07T05:03:59.713Z,11.50
2022-08-07T05:04:27.814Z,11.53
2022-08-07T05:05:53.373Z,11.54
2022-08-07T05:06:28.095Z,11.57
2022-08-07T05:07:36.505Z,11.61
2022-08-07T05:09:00.213Z,11.65
2022-08-07T05:09:28.068Z,11.67
2022-08-07T05:10:27.687Z,11.72
2022-08-07T05:11:27.675Z,11.72
2022-08-07T05:12:30.455Z,11.78
2022-08-07T05:14:55.525Z,11.82
2022-08-07T05:15:04.846Z,11.83
2022-08-07T05:15:27.602Z,11.86
2022-08-07T05:16:27.623Z,11.89
2022-08-07T05:17:51.454Z,11.96
2022-08-07T05:18:27.572Z,11.99
2022-08-07T05:19:32.856Z,12.05
2022-08-07T05:20:27.549Z,12.06
2022-08-07T05:21:58.997Z,12.11
2022-08-07T05:22:27.735Z,12.13
2022-08-07T05:23:30.196Z,12.19
2022-08-07T05:24:30.555Z,12.21
2022-08-07T05:25:36.750Z,12.27
2022-08-07T05:26:27.491Z,12.30
2022-08-07T05:28:16.273Z,12.38
2022-08-07T05:28:27.803Z,12.41
2022-08-07T05:29:27.449Z,12.45
2022-08-07T05:30:30.154Z,12.49
2022-08-07T05:31:34.554Z,12.54
2022-08-07T05:32:27.425Z,12.62
2022-08-07T05:33:27.409Z,12.64
2022-08-07T05:34:27.630Z,12.70
2022-08-07T05:35:33.600Z,12.75
2022-08-07T05:36:30.293Z,12.78
2022-08-07T05:37:27.662Z,12.84
2022-08-07T05:38:58.176Z,12.87
2022-08-07T05:40:14.320Z,12.92
2022-08-07T05:40:28.665Z,12.99
2022-08-07T05:42:01.779Z,13.03
2022-08-07T05:42:33.626Z,13.07
2022-08-07T05:43:49.798Z,13.14
2022-08-07T05:44:29.245Z,13.17
2022-08-07T05:45:47.756Z,13.21
2022-08-07T05:46:27.299Z,13.27
2022-08-07T05:47:38.660Z,13.32
2022-08-07T05:48:27.248Z,13.37
2022-08-07T05:49:27.229Z,13.40
2022-08-07T05:50:27.239Z,13.46
2022-08-07T05:51:31.744Z,13.51
2022-08-07T05:52:32.586Z,13.55
2022-08-07T05:54:13.643Z,13.58
2022-08-07T05:54:53.173Z,13.65
2022-08-07T05:56:03.851Z,13.70
2022-08-07T05:56:30.217Z,13.73
2022-08-07T05:57:30.236Z,13.76
2022-08-07T05:58:36.185Z,13.80
2022-08-07T05:59:27.377Z,13.84
2022-08-07T06:00:27.183Z,13.88
2022-08-07T06:01:27.565Z,13.95
2022-08-07T06:02:29.089Z,13.99
2022-08-07T06:03:27.105Z,14.04
2022-08-07T06:04:29.907Z,14.09
2022-08-07T06:05:28.277Z,14.14
2022-08-07T06:06:29.714Z,14.19
2022-08-07T06:08:29.250Z,14.24
2022-08-07T06:08:40.548Z,14.32
2022-08-07T06:10:04.230Z,14.49
2022-08-07T06:10:27.115Z,14.93
2022-08-07T06:11:27.000Z,15.46
2022-08-07T06:12:27.878Z,15.92
2022-08-07T06:13:31.513Z,16.30
2022-08-07T06:14:28.908Z,16.56
2022-08-07T06:15:42.278Z,16.89
2022-08-07T06:16:29.111Z,17.11
2022-08-07T06:17:32.013Z,17.26
2022-08-07T06:18:27.948Z,17.44
2022-08-07T06:19:47.938Z,17.47
2022-08-07T06:20:49.841Z,17.57
2022-08-07T06:22:23.929Z,17.71
2022-08-07T06:22:36.875Z,17.79
2022-08-07T06:23:46.435Z,18.04
2022-08-07T06:24:57.827Z,18.28
2022-08-07T06:25:27.261Z,18.52
2022-08-07T06:26:27.484Z,18.57
2022-08-07T06:27:44.361Z,18.67
2022-08-07T06:28:27.799Z,18.77
2022-08-07T06:29:26.834Z,18.83
2022-08-07T06:30:35.769Z,18.86
2022-08-07T06:31:38.382Z,18.94
2022-08-07T06:32:29.443Z,19.17
2022-08-07T06:33:26.802Z,19.43
2022-08-07T06:34:29.797Z,19.55
2022-08-07T06:35:39.104Z,19.78
2022-08-07T06:36:34.824Z,20.06
2022-08-07T06:37:26.865Z,20.31
2022-08-07T06:38:28.450Z,20.47
2022-08-07T06:40:17.139Z,20.49
2022-08-07T06:40:32.357Z,20.61
2022-08-07T06:41:29.423Z,20.39
2022-08-07T06:42:35.096Z,20.56
2022-08-07T06:43:26.832Z,20.56
2022-08-07T06:44:26.641Z,20.69
2022-08-07T06:45:26.682Z,20.90
2022-08-07T06:46:31.397Z,21.08
2022-08-07T06:47:27.135Z,21.45
2022-08-07T06:48:26.597Z,21.16
2022-08-07T06:49:26.608Z,21.08
2022-08-07T06:50:28.041Z,21.46
2022-08-07T06:51:33.097Z,21.76
2022-08-07T06:52:31.810Z,22.12
2022-08-07T06:55:27.948Z,22.31
2022-08-07T06:56:00.472Z,22.35
2022-08-07T06:56:07.430Z,22.84
2022-08-07T06:56:49.926Z,23.20
2022-08-07T06:57:50.931Z,23.58
2022-08-07T07:00:11.647Z,24.08
2022-08-07T07:00:20.427Z,24.31
2022-08-07T07:00:52.982Z,24.27
2022-08-07T07:01:50.810Z,24.41
2022-08-07T07:02:54.222Z,24.45
2022-08-07T07:03:57.228Z,24.64
2022-08-07T07:04:54.903Z,24.52
2022-08-07T07:06:02.840Z,24.01
2022-08-07T07:07:00.189Z,23.90
2022-08-07T07:07:59.646Z,23.80
2022-08-07T07:08:49.089Z,23.86
2022-08-07T07:09:49.488Z,24.00
2022-08-07T07:10:56.990Z,23.68
2022-08-07T07:12:08.178Z,23.83
2022-08-07T07:12:53.333Z,23.85
2022-08-07T07:13:57.790Z,23.97
2022-08-07T07:14:49.046Z,24.13
2022-08-07T07:15:51.398Z,24.22
2022-08-07T07:16:51.016Z,24.05
2022-08-07T07:17:50.627Z,24.37
2022-08-07T07:18:48.955Z,24.57
2022-08-07T07:19:55.020Z,24.44
2022-08-07T07:20:49.014Z,24.05
2022-08-07T07:22:05.392Z,24.10
2022-08-07T07:24:10.185Z,24.16
2022-08-07T07:24:17.352Z,24.20
2022-08-07T07:24:56.866Z,24.08
2022-08-07T07:26:33.097Z,24.04
2022-08-07T07:26:51.944Z,23.85
2022-08-07T07:28:01.900Z,23.15
2022-08-07T07:29:39.250Z,23.32
2022-08-07T07:30:08.805Z,23.31
2022-08-07T07:30:48.846Z,23.50
2022-08-07T07:31:48.838Z,23.20
2022-08-07T07:32:48.862Z,22.83
2022-08-07T07:33:54.963Z,23.04
2022-08-07T07:34:48.872Z,22.96
2022-08-07T07:36:03.940Z,23.05
2022-08-07T07:36:53.829Z,23.22
2022-08-07T07:37:59.111Z,23.31
2022-08-07T07:38:48.876Z,23.52
2022-08-07T07:39:54.596Z,23.57
2022-08-07T07:40:48.756Z,23.55
2022-08-07T07:42:02.307Z,23.57
2022-08-07T07:42:53.911Z,23.27
2022-08-07T07:44:16.984Z,23.35
2022-08-07T07:44:49.424Z,23.64
2022-08-07T07:46:40.393Z,23.86
2022-08-07T07:47:15.739Z,23.85
2022-08-07T07:47:52.689Z,23.62
2022-08-07T07:48:48.690Z,23.53
2022-08-07T07:50:33.578Z,23.53
2022-08-07T07:50:48.733Z,23.50
2022-08-07T07:51:58.549Z,23.61
2022-08-07T07:52:48.665Z,23.45
2022-08-07T07:53:52.109Z,23.32
2022-08-07T07:54:51.481Z,23.23
2022-08-07T07:55:57.765Z,23.34
2022-08-07T07:56:48.694Z,23.43
2022-08-07T07:57:52.737Z,23.57
2022-08-07T07:58:48.597Z,23.80
2022-08-07T07:59:52.575Z,23.94
2022-08-07T08:00:53.609Z,23.86
2022-08-07T08:02:01.929Z,23.87
2022-08-07T08:03:01.164Z,23.95
2022-08-07T08:04:10.511Z,23.94
2022-08-07T08:04:50.442Z,23.95
2022-08-07T08:05:55.053Z,23.55
2022-08-07T08:06:52.153Z,23.67
2022-08-07T08:07:59.703Z,23.64
2022-08-07T08:08:48.555Z,23.71
2022-08-07T08:09:52.032Z,23.67
2022-08-07T08:10:48.506Z,23.70
2022-08-07T08:12:02.355Z,23.77
2022-08-07T08:12:52.220Z,23.87
2022-08-07T08:13:54.402Z,23.70
2022-08-07T08:14:48.512Z,23.57
2022-08-07T08:15:58.546Z,23.75
2022-08-07T08:18:41.882Z,23.79
2022-08-07T08:18:50.523Z,23.82
2022-08-07T08:20:17.199Z,23.89
2022-08-07T08:20:50.090Z,24.00
2022-08-07T08:21:55.420Z,24.17
2022-08-07T08:22:56.150Z,24.26
2022-08-07T08:23:50.052Z,24.41
2022-08-07T08:24:51.280Z,24.27
2022-08-07T08:25:50.091Z,24.34
2022-08-07T08:26:50.257Z,24.44
2022-08-07T08:27:56.485Z,24.42
2022-08-07T08:28:50.028Z,24.47
2022-08-07T08:29:54.703Z,24.57
2022-08-07T08:30:51.515Z,24.57
2022-08-07T08:32:17.495Z,24.71
2022-08-07T08:32:50.254Z,24.50
2022-08-07T08:33:55.703Z,24.69
2022-08-07T08:34:49.974Z,24.85
2022-08-07T08:35:50.850Z,24.90
2022-08-07T08:36:57.657Z,25.01
2022-08-07T08:38:01.542Z,25.09
2022-08-07T08:38:49.920Z,25.01
2022-08-07T08:39:54.933Z,24.95
2022-08-07T08:40:49.903Z,25.06
2022-08-07T08:41:58.556Z,25.16
2022-08-07T08:42:51.732Z,25.25
2022-08-07T08:43:58.684Z,25.25
2022-08-07T08:44:49.860Z,25.15
2022-08-07T08:45:59.383Z,25.07
2022-08-07T08:46:49.849Z,25.00
2022-08-07T08:47:52.675Z,25.12
2022-08-07T08:48:50.914Z,25.27
2022-08-07T08:50:04.531Z,25.30
2022-08-07T08:50:51.647Z,25.43
2022-08-07T08:52:13.030Z,25.52
2022-08-07T08:52:53.626Z,25.43
2022-08-07T08:53:49.771Z,25.20
2022-08-07T08:54:50.054Z,25.05
2022-08-07T08:55:54.955Z,25.10
2022-08-07T08:56:49.756Z,25.00
2022-08-07T08:57:49.747Z,25.01
2022-08-07T08:58:50.526Z,24.92
2022-08-07T08:59:50.292Z,24.59
2022-08-07T09:00:51.711Z,24.64
2022-08-07T09:01:50.058Z,24.75
2022-08-07T09:02:52.505Z,24.85
2022-08-07T09:03:52.586Z,24.94
2022-08-07T09:04:49.660Z,25.05
2022-08-07T09:05:49.674Z,25.20
2022-08-07T09:06:49.686Z,25.20
2022-08-07T09:07:57.720Z,25.24
2022-08-07T09:08:49.645Z,25.52
2022-08-07T09:09:56.779Z,25.69
2022-08-07T09:10:49.622Z,25.43
2022-08-07T09:11:54.532Z,25.06
2022-08-07T09:12:53.618Z,25.05
2022-08-07T09:13:49.618Z,25.00
2022-08-07T09:14:50.554Z,24.98
2022-08-07T09:16:22.440Z,25.15
2022-08-07T09:16:49.564Z,25.39
2022-08-07T09:18:02.097Z,25.67
2022-08-07T09:18:53.157Z,25.86
2022-08-07T09:19:53.079Z,25.91
2022-08-07T09:20:57.883Z,26.05
2022-08-07T09:22:10.279Z,26.20
2022-08-07T09:24:54.892Z,26.09
2022-08-07T09:25:11.960Z,25.99
2022-08-07T09:25:42.132Z,25.89
2022-08-07T09:26:47.894Z,25.89
2022-08-07T09:28:00.002Z,25.91
2022-08-07T09:30:04.317Z,26.05
2022-08-07T09:30:12.468Z,26.18
2022-08-07T09:30:42.094Z,26.28
2022-08-07T09:31:49.243Z,26.35
2022-08-07T09:32:42.078Z,26.37
2022-08-07T09:33:56.759Z,26.43
2022-08-07T09:34:42.111Z,26.55
2022-08-07T09:36:03.201Z,26.62
2022-08-07T09:36:43.035Z,26.67
2022-08-07T09:37:48.547Z,26.49
2022-08-07T09:38:42.036Z,26.32
2022-08-07T09:39:55.055Z,26.06
2022-08-07T09:40:42.000Z,25.87
2022-08-07T09:41:58.328Z,25.87
2022-08-07T09:42:42.000Z,25.89
2022-08-07T09:44:06.132Z,25.97
2022-08-07T09:47:25.073Z,25.97
2022-08-07T09:48:03.006Z,26.15
2022-08-07T09:48:12.247Z,26.37
2022-08-07T09:50:03.711Z,26.35
2022-08-07T09:50:26.471Z,26.15
2022-08-07T09:51:25.964Z,26.02
2022-08-07T09:52:34.131Z,25.97
2022-08-07T09:53:07.541Z,25.98
2022-08-07T09:54:07.493Z,26.01
2022-08-07T09:55:16.906Z,26.17
2022-08-07T09:56:07.465Z,26.37
2022-08-07T09:57:07.737Z,26.59
2022-08-07T09:58:07.442Z,26.61
2022-08-07T09:59:07.751Z,26.69
2022-08-07T10:00:07.442Z,26.69
2022-08-07T10:01:08.386Z,26.80
2022-08-07T10:02:07.425Z,26.83
2022-08-07T10:04:03.716Z,26.91
2022-08-07T10:04:14.967Z,27.05
2022-08-07T10:05:12.730Z,27.14
2022-08-07T10:06:12.221Z,27.21
2022-08-07T10:07:24.331Z,27.05
2022-08-07T10:08:07.370Z,26.99
2022-08-07T10:09:07.338Z,26.89
2022-08-07T10:10:20.971Z,26.58
2022-08-07T10:11:16.495Z,26.42
2022-08-07T10:12:16.715Z,26.21
2022-08-07T10:13:15.763Z,26.20
2022-08-07T10:14:07.291Z,26.08
2022-08-07T10:15:07.304Z,25.89
2022-08-07T10:16:07.311Z,25.91
2022-08-07T10:17:14.347Z,26.11
2022-08-07T10:18:07.260Z,26.40
2022-08-07T10:19:11.318Z,26.50
2022-08-07T10:20:07.222Z,26.57
2022-08-07T10:21:19.977Z,26.31
2022-08-07T10:22:16.080Z,26.18
2022-08-07T10:23:07.715Z,26.32
2022-08-07T10:24:08.763Z,26.46
2022-08-07T10:25:07.189Z,26.52
2022-08-07T10:26:07.163Z,26.62
2022-08-07T10:27:10.557Z,26.59
2022-08-07T10:28:07.195Z,26.76
2022-08-07T10:29:07.145Z,26.83
2022-08-07T10:30:07.139Z,26.83
2022-08-07T10:31:11.072Z,26.84
2022-08-07T10:32:07.122Z,26.84
2022-08-07T10:33:08.391Z,26.98
2022-08-07T10:34:17.895Z,27.11
2022-08-07T10:35:08.939Z,27.19
2022-08-07T10:36:11.437Z,27.32
2022-08-07T10:37:09.290Z,27.42
2022-08-07T10:38:21.750Z,27.33
2022-08-07T10:39:07.118Z,27.53
2022-08-07T10:40:09.098Z,27.47
2022-08-07T10:41:07.036Z,27.47
2022-08-07T10:42:09.799Z,27.64
2022-08-07T10:43:07.031Z,27.84
2022-08-07T10:44:07.685Z,27.89
2022-08-07T10:45:06.997Z,28.01
2022-08-07T10:46:06.995Z,27.98
2022-08-07T10:47:11.937Z,27.76
2022-08-07T10:48:07.349Z,27.66
2022-08-07T10:49:06.979Z,27.59
2022-08-07T10:50:06.956Z,27.29
2022-08-07T10:51:06.938Z,27.10
2022-08-07T10:52:13.633Z,26.96
2022-08-07T10:53:08.876Z,26.83
2022-08-07T10:54:07.197Z,26.74
2022-08-07T10:55:20.934Z,26.57
2022-08-07T10:56:06.877Z,26.74
2022-08-07T10:57:06.869Z,26.91
2022-08-07T10:58:06.876Z,27.10
2022-08-07T10:59:06.843Z,27.24
2022-08-07T11:00:06.822Z,27.39
2022-08-07T11:01:11.692Z,27.43
2022-08-07T11:02:12.445Z,27.64
2022-08-07T11:03:10.959Z,27.84
2022-08-07T11:04:23.388Z,27.99
2022-08-07T11:05:10.167Z,28.06
2022-08-07T11:06:06.768Z,28.17
2022-08-07T11:07:14.846Z,28.19
2022-08-07T11:08:07.018Z,28.04
2022-08-07T11:09:11.129Z,27.96
2022-08-07T11:10:10.934Z,27.88
2022-08-07T11:11:06.744Z,27.96
2022-08-07T11:12:06.715Z,28.16
2022-08-07T11:13:06.713Z,28.35
2022-08-07T11:14:59.731Z,28.22
2022-08-07T11:15:14.778Z,28.28
2022-08-07T11:16:07.317Z,28.40
2022-08-07T11:17:07.221Z,28.58
2022-08-07T11:18:06.644Z,28.63
2022-08-07T11:19:06.838Z,28.60
2022-08-07T11:20:06.621Z,28.66
2022-08-07T11:21:06.902Z,28.78
2022-08-07T11:22:06.655Z,28.81
2022-08-07T11:23:07.228Z,28.62
2022-08-07T11:24:08.500Z,28.68
2022-08-07T11:25:07.363Z,28.65
2022-08-07T11:26:06.718Z,28.81
2022-08-07T11:27:06.601Z,29.03
2022-08-07T11:28:07.226Z,29.28
2022-08-07T11:29:13.114Z,29.56
2022-08-07T11:30:18.039Z,29.93
2022-08-07T11:31:08.765Z,30.23
2022-08-07T11:32:06.511Z,30.43
2022-08-07T11:33:07.935Z,30.05
2022-08-07T11:34:06.545Z,29.63
2022-08-07T11:35:06.472Z,29.10
2022-08-07T11:36:10.400Z,28.47
2022-08-07T11:37:06.770Z,28.11
2022-08-07T11:38:10.475Z,27.61
2022-08-07T11:39:07.004Z,27.13
2022-08-07T11:40:06.865Z,26.92
2022-08-07T11:41:06.420Z,26.69
2022-08-07T11:42:06.412Z,26.44
2022-08-07T11:43:06.441Z,25.90
2022-08-07T11:44:12.048Z,25.68
2022-08-07T11:45:06.391Z,25.53
2022-08-07T11:46:06.459Z,25.35
2022-08-07T11:47:06.383Z,25.34
2022-08-07T11:48:13.790Z,25.27
2022-08-07T11:49:50.428Z,25.35
2022-08-07T11:50:34.888Z,25.42
2022-08-07T11:51:08.979Z,25.65
2022-08-07T11:52:06.351Z,26.21
2022-08-07T11:53:06.319Z,26.84
2022-08-07T11:54:10.493Z,27.16
2022-08-07T11:55:09.042Z,26.81
2022-08-07T11:56:25.546Z,27.24
2022-08-07T11:57:06.281Z,27.69
2022-08-07T11:58:16.124Z,27.98
2022-08-07T12:00:10.896Z,28.46
2022-08-07T12:00:28.409Z,28.88
2022-08-07T12:01:06.724Z,29.35
2022-08-07T12:02:10.194Z,29.60
2022-08-07T12:03:06.294Z,29.57
2022-08-07T12:04:06.242Z,29.57
2022-08-07T12:05:15.021Z,29.92
2022-08-07T12:06:37.878Z,30.26
2022-08-07T12:07:10.126Z,30.45
2022-08-07T12:08:06.136Z,30.53
2022-08-07T12:09:07.452Z,30.71
2022-08-07T12:10:06.973Z,30.90
2022-08-07T12:11:20.105Z,30.74
2022-08-07T12:12:10.205Z,30.76
2022-08-07T12:13:11.508Z,30.78
2022-08-07T12:14:06.084Z,31.02
2022-08-07T12:15:08.210Z,31.20
2022-08-07T12:16:09.194Z,31.31
2022-08-07T12:17:06.055Z,31.28
2022-08-07T12:18:06.084Z,31.54
2022-08-07T12:19:06.051Z,31.76
2022-08-07T12:20:12.901Z,31.98
2022-08-07T12:21:06.025Z,32.14
2022-08-07T12:22:37.520Z,32.32
2022-08-07T12:23:09.039Z,32.51
2022-08-07T12:24:37.392Z,32.54
2022-08-07T12:25:07.556Z,32.58
2022-08-07T12:26:23.370Z,32.51
2022-08-07T12:27:13.304Z,32.42
2022-08-07T12:28:10.067Z,32.33
2022-08-07T12:29:05.953Z,32.54
2022-08-07T12:30:05.928Z,32.66
2022-08-07T12:31:05.920Z,32.74
2022-08-07T12:32:10.778Z,32.81
2022-08-07T12:33:18.828Z,32.73
2022-08-07T12:34:11.230Z,32.39
2022-08-07T12:35:07.356Z,32.43
2022-08-07T12:36:05.883Z,32.07
2022-08-07T12:37:08.775Z,30.76
2022-08-07T12:38:09.720Z,30.37
2022-08-07T12:39:09.526Z,30.14
2022-08-07T12:40:11.629Z,30.33
2022-08-07T12:41:06.059Z,30.52
2022-08-07T12:42:05.802Z,30.62
2022-08-07T12:43:09.819Z,30.84
2022-08-07T12:44:10.356Z,30.72
2022-08-07T12:45:06.554Z,30.80
2022-08-07T12:46:06.059Z,31.09
2022-08-07T12:47:06.427Z,31.40
2022-08-07T12:48:13.331Z,31.64
2022-08-07T12:49:09.800Z,31.91
2022-08-07T12:50:34.162Z,32.18
2022-08-07T12:51:12.847Z,32.00
2022-08-07T12:52:13.798Z,31.92
2022-08-07T12:53:18.247Z,31.65
2022-08-07T12:54:37.670Z,31.72
2022-08-07T12:55:09.753Z,31.99
2022-08-07T12:56:09.213Z,31.98
2022-08-07T12:57:09.826Z,31.84
2022-08-07T12:58:05.993Z,31.98